Time;durP1;ratioP1;P1;durP2;ratioP2;P2;SDS_P1;SDS_P2;PMS_P1;PMS_P2;Temp;Humidity;BMP_temperature;BMP_pressure;BME280_temperature;BME280_humidity;BME280_pressure;Samples;Min_cycle;Max_cycle;Signal;HPM_P1;HPM_P2
2020/12/04 00:00:48;;;;;;;2.77;1.93;;;5.20;99.90;;;;;;5049499;28;20206;-76
2020/12/04 00:03:15;;;;;;;2.63;2.20;;;5.20;99.90;;;;;;5056579;28;20206;-76
2020/12/04 00:05:41;;;;;;;2.50;2.00;;;5.20;99.90;;;;;;5044224;28;20282;-76
2020/12/04 00:08:08;;;;;;;3.30;2.40;;;5.20;99.90;;;;;;5070446;28;20217;-77
2020/12/04 00:10:34;;;;;;;2.63;1.87;;;5.30;99.90;;;;;;5079809;28;20870;-77
2020/12/04 00:13:01;;;;;;;2.40;1.97;;;5.30;99.90;;;;;;5053560;28;20232;-76
2020/12/04 00:15:27;;;;;;;2.33;2.00;;;5.30;99.90;;;;;;5047713;28;20208;-77
2020/12/04 00:17:54;;;;;;;3.07;2.00;;;5.30;99.90;;;;;;5040004;28;20207;-78
2020/12/04 00:20:20;;;;;;;2.27;2.00;;;5.30;99.90;;;;;;5056352;28;20214;-77
2020/12/04 00:22:47;;;;;;;2.00;1.80;;;5.20;99.90;;;;;;5038033;28;20222;-78
2020/12/04 00:25:13;;;;;;;2.67;2.00;;;5.20;99.90;;;;;;5056531;28;20202;-77
2020/12/04 00:27:40;;;;;;;3.23;2.10;;;5.20;99.90;;;;;;5046961;28;20217;-76
2020/12/04 00:30:08;;;;;;;3.73;2.23;;;5.20;99.90;;;;;;5065484;28;20208;-77
2020/12/04 00:32:34;;;;;;;3.70;1.57;;;5.20;99.90;;;;;;5044443;28;20200;-76
2020/12/04 00:35:01;;;;;;;3.17;2.20;;;5.20;99.90;;;;;;5068370;28;20206;-78
2020/12/04 00:37:27;;;;;;;4.47;2.30;;;5.20;99.90;;;;;;5049660;28;20518;-78
2020/12/04 00:39:54;;;;;;;2.10;1.87;;;5.20;99.90;;;;;;5037230;28;20729;-78
2020/12/04 00:42:20;;;;;;;3.00;2.10;;;5.20;99.90;;;;;;5053556;28;20598;-78
2020/12/04 00:44:47;;;;;;;2.47;2.23;;;5.20;99.90;;;;;;5039675;28;20204;-77
2020/12/04 00:47:13;;;;;;;2.57;2.37;;;5.20;99.90;;;;;;5066272;28;20220;-78
2020/12/04 00:49:41;;;;;;;3.23;2.20;;;5.20;99.90;;;;;;5063816;28;20240;-77
2020/12/04 00:52:07;;;;;;;3.50;2.00;;;5.20;99.90;;;;;;5071058;28;20300;-78
2020/12/04 00:54:34;;;;;;;2.83;2.00;;;5.20;99.90;;;;;;5056326;28;20207;-79
2020/12/04 00:57:00;;;;;;;2.43;2.10;;;5.20;99.90;;;;;;5071963;28;20213;-79
2020/12/04 00:59:27;;;;;;;2.53;2.27;;;5.20;99.90;;;;;;5066763;28;20225;-79
2020/12/04 01:01:53;;;;;;;3.23;2.43;;;5.20;99.90;;;;;;5048545;28;20210;-79
2020/12/04 01:04:20;;;;;;;3.47;2.63;;;5.20;99.90;;;;;;5047960;28;21185;-78
2020/12/04 01:06:47;;;;;;;4.47;2.20;;;5.20;99.90;;;;;;5042906;28;20202;-78
2020/12/04 01:09:13;;;;;;;2.83;2.23;;;5.20;99.90;;;;;;5042356;28;20287;-78
2020/12/04 01:11:40;;;;;;;3.33;2.40;;;5.20;99.90;;;;;;5054546;28;20653;-78
2020/12/04 01:14:08;;;;;;;2.77;2.50;;;5.10;99.90;;;;;;5059180;28;20210;-78
2020/12/04 01:16:34;;;;;;;3.13;1.90;;;5.20;99.90;;;;;;5053594;28;20235;-79
2020/12/04 01:19:01;;;;;;;2.80;2.10;;;5.20;99.90;;;;;;5050270;28;20210;-78
2020/12/04 01:21:27;;;;;;;2.80;1.77;;;5.20;99.90;;;;;;5065891;28;21979;-78
2020/12/04 01:23:54;;;;;;;2.57;1.87;;;5.20;99.90;;;;;;5035049;28;20230;-77
2020/12/04 01:26:21;;;;;;;3.37;2.10;;;5.20;99.90;;;;;;5068450;28;20214;-79
2020/12/04 01:28:47;;;;;;;2.00;1.77;;;5.20;99.90;;;;;;5057685;28;20202;-77
2020/12/04 01:31:14;;;;;;;4.43;1.77;;;5.30;99.90;;;;;;5066683;28;20408;-79
2020/12/04 01:33:41;;;;;;;2.10;1.83;;;5.30;99.90;;;;;;5066050;28;20201;-80
2020/12/04 01:36:07;;;;;;;2.30;2.03;;;5.20;99.90;;;;;;5066879;28;20226;-80
2020/12/04 01:38:34;;;;;;;1.90;1.70;;;5.30;99.90;;;;;;5057308;28;20224;-78
2020/12/04 01:41:02;;;;;;;2.67;1.87;;;5.20;99.90;;;;;;5051240;28;20225;-79
2020/12/04 01:43:29;;;;;;;1.53;1.43;;;5.30;99.90;;;;;;5053746;28;20274;-79
2020/12/04 01:45:57;;;;;;;3.20;1.87;;;5.20;99.90;;;;;;5068600;28;20295;-79
2020/12/04 01:48:25;;;;;;;2.43;1.60;;;5.30;99.90;;;;;;5072880;28;20197;-78
2020/12/04 01:50:52;;;;;;;3.03;1.50;;;5.30;99.90;;;;;;5074245;28;20282;-79
2020/12/04 01:53:19;;;;;;;2.20;1.40;;;5.30;99.90;;;;;;5062674;28;20211;-78
2020/12/04 01:55:46;;;;;;;1.80;1.40;;;5.30;99.90;;;;;;5047008;28;20254;-79
2020/12/04 01:58:13;;;;;;;0.97;0.93;;;5.30;99.90;;;;;;5088167;28;20196;-78
2020/12/04 02:00:39;;;;;;;2.53;1.57;;;5.30;99.90;;;;;;5069416;28;20198;-77
2020/12/04 02:03:08;;;;;;;2.50;1.60;;;5.20;99.90;;;;;;5059179;28;20213;-77
2020/12/04 02:05:45;;;;;;;1.77;1.10;;;5.30;99.90;;;;;;5073422;28;20611;-77
2020/12/04 02:08:37;;;;;;;1.30;1.03;;;5.20;99.90;;;;;;5082136;28;20254;-77
2020/12/04 02:11:17;;;;;;;1.93;1.47;;;5.20;99.90;;;;;;5066857;28;20223;-78
2020/12/04 02:13:45;;;;;;;1.80;1.30;;;5.20;99.90;;;;;;5075566;28;20291;-77
2020/12/04 02:16:17;;;;;;;1.50;1.40;;;5.30;99.90;;;;;;5078090;28;20253;-78
2020/12/04 02:18:44;;;;;;;1.40;1.00;;;5.20;99.90;;;;;;5067307;28;20195;-77
2020/12/04 02:21:11;;;;;;;4.10;1.23;;;5.30;99.90;;;;;;5074813;28;21887;-78
2020/12/04 02:23:44;;;;;;;1.63;1.40;;;5.20;99.90;;;;;;5084304;28;20279;-77
2020/12/04 02:26:12;;;;;;;1.50;1.27;;;5.30;99.90;;;;;;5085145;28;20605;-77
2020/12/04 02:28:39;;;;;;;2.00;1.10;;;5.30;99.90;;;;;;5085263;28;20213;-79
2020/12/04 02:31:07;;;;;;;1.57;1.30;;;5.30;99.90;;;;;;5073363;28;20222;-79
2020/12/04 02:33:34;;;;;;;1.20;1.03;;;5.30;99.90;;;;;;5089535;28;20202;-77
2020/12/04 02:36:01;;;;;;;0.93;0.80;;;5.30;99.90;;;;;;5093713;28;20576;-77
2020/12/04 02:38:28;;;;;;;1.27;1.10;;;5.30;99.90;;;;;;5091083;28;20660;-77
2020/12/04 02:40:55;;;;;;;1.43;1.20;;;5.30;99.90;;;;;;5086841;28;20275;-77
2020/12/04 02:43:22;;;;;;;1.40;1.10;;;5.30;99.90;;;;;;5088184;28;20563;-77
2020/12/04 02:45:50;;;;;;;1.67;0.93;;;5.40;99.90;;;;;;5074543;28;20663;-77
2020/12/04 02:48:16;;;;;;;0.93;0.87;;;5.40;99.90;;;;;;5076086;28;20563;-76
2020/12/04 02:50:43;;;;;;;1.00;0.90;;;5.40;99.90;;;;;;5061982;28;20232;-77
2020/12/04 02:53:09;;;;;;;0.77;0.70;;;5.50;99.90;;;;;;5087382;28;20202;-78
2020/12/04 02:55:36;;;;;;;1.30;0.97;;;5.40;99.90;;;;;;5069241;28;20605;-78
2020/12/04 02:58:03;;;;;;;1.00;0.83;;;5.50;99.90;;;;;;5088563;28;20198;-78
2020/12/04 03:00:30;;;;;;;2.97;0.80;;;5.50;99.90;;;;;;5058625;28;20326;-78
2020/12/04 03:02:56;;;;;;;0.83;0.73;;;5.50;99.90;;;;;;5069933;28;20626;-77
2020/12/04 03:05:22;;;;;;;1.40;0.90;;;5.50;99.90;;;;;;5065722;28;20727;-78
2020/12/04 03:07:49;;;;;;;1.17;0.80;;;5.50;99.90;;;;;;5089296;28;20586;-79
2020/12/04 03:10:15;;;;;;;1.07;0.73;;;5.50;99.90;;;;;;5070634;28;20578;-79
2020/12/04 03:12:42;;;;;;;0.87;0.70;;;5.50;99.90;;;;;;5072978;28;20280;-79
2020/12/04 03:15:09;;;;;;;0.87;0.73;;;5.50;99.90;;;;;;5087322;28;20210;-78
2020/12/04 03:17:36;;;;;;;0.90;0.70;;;5.50;99.90;;;;;;5072116;28;20662;-78
2020/12/04 03:20:04;;;;;;;0.70;0.50;;;5.60;99.90;;;;;;5095364;28;20673;-79
2020/12/04 03:22:31;;;;;;;0.70;0.60;;;5.60;99.90;;;;;;5087243;28;20192;-79
2020/12/04 03:24:58;;;;;;;1.30;0.77;;;5.60;99.90;;;;;;5071828;28;20593;-78
2020/12/04 03:27:25;;;;;;;0.60;0.60;;;5.70;99.90;;;;;;5069172;28;20295;-78
2020/12/04 03:29:51;;;;;;;1.20;0.63;;;5.60;99.90;;;;;;5083364;28;20265;-79
2020/12/04 03:32:17;;;;;;;0.93;0.73;;;5.70;99.90;;;;;;5087535;28;20659;-78
2020/12/04 03:34:44;;;;;;;2.43;0.70;;;5.70;99.90;;;;;;5044992;28;20267;-78
2020/12/04 03:37:10;;;;;;;0.50;0.50;;;5.70;99.90;;;;;;5050854;28;20211;-77
2020/12/04 03:39:37;;;;;;;0.77;0.67;;;5.70;99.90;;;;;;5066855;28;20222;-77
2020/12/04 03:42:03;;;;;;;0.80;0.67;;;5.70;99.90;;;;;;5066533;28;20197;-78
2020/12/04 03:44:30;;;;;;;2.20;0.80;;;5.70;99.90;;;;;;5070551;28;20245;-77
2020/12/04 03:46:57;;;;;;;0.90;0.73;;;5.70;99.90;;;;;;5083676;28;20219;-77
2020/12/04 03:49:23;;;;;;;0.63;0.63;;;5.70;99.90;;;;;;5083966;28;20229;-78
2020/12/04 03:51:50;;;;;;;0.80;0.60;;;5.70;99.90;;;;;;5049878;28;21902;-78
2020/12/04 03:54:16;;;;;;;0.60;0.50;;;5.80;99.90;;;;;;5055015;28;20650;-77
2020/12/04 03:56:42;;;;;;;1.47;0.60;;;5.80;99.90;;;;;;5053342;28;20212;-78
2020/12/04 03:59:09;;;;;;;0.50;0.50;;;5.80;99.90;;;;;;5074006;28;20543;-79
2020/12/04 04:01:35;;;;;;;0.97;0.50;;;5.80;99.90;;;;;;5056339;28;20569;-78
2020/12/04 04:04:02;;;;;;;0.97;0.70;;;5.80;99.90;;;;;;5070150;28;20253;-78
2020/12/04 04:06:28;;;;;;;0.53;0.40;;;5.80;99.90;;;;;;5070413;28;20203;-78
2020/12/04 04:08:54;;;;;;;1.10;0.50;;;5.80;99.90;;;;;;5043826;28;20212;-77
2020/12/04 04:11:21;;;;;;;1.47;0.70;;;5.90;99.90;;;;;;5068160;28;20349;-80
2020/12/04 04:13:47;;;;;;;0.47;0.40;;;5.90;99.90;;;;;;5068122;28;20248;-78
2020/12/04 04:16:13;;;;;;;0.90;0.50;;;5.90;99.90;;;;;;5079279;28;20291;-78
2020/12/04 04:18:40;;;;;;;0.50;0.37;;;5.90;99.90;;;;;;5089252;28;20204;-78
2020/12/04 04:21:10;;;;;;;0.77;0.70;;;5.90;99.90;;;;;;5054399;28;20226;-78
2020/12/04 04:23:38;;;;;;;0.50;0.40;;;5.90;99.90;;;;;;5082138;28;20625;-78
2020/12/04 04:26:04;;;;;;;2.60;0.80;;;5.90;99.90;;;;;;5069299;28;20268;-78
2020/12/04 04:28:31;;;;;;;0.60;0.57;;;5.80;99.90;;;;;;5087541;28;20910;-79
2020/12/04 04:30:57;;;;;;;0.93;0.80;;;5.90;99.90;;;;;;5071686;28;20212;-77
2020/12/04 04:33:24;;;;;;;0.63;0.60;;;5.80;99.90;;;;;;5066508;28;20252;-78
2020/12/04 04:35:51;;;;;;;1.60;0.83;;;5.80;99.90;;;;;;5089384;28;20382;-78
2020/12/04 04:38:17;;;;;;;0.57;0.40;;;5.80;99.90;;;;;;5051872;28;20260;-78
2020/12/04 04:40:44;;;;;;;0.93;0.73;;;5.90;99.90;;;;;;5073925;28;20602;-78
2020/12/04 04:43:15;;;;;;;1.23;0.97;;;5.90;99.90;;;;;;5073058;28;20202;-78
2020/12/04 04:45:43;;;;;;;0.80;0.80;;;5.90;99.90;;;;;;5076608;28;20225;-77
2020/12/04 04:48:19;;;;;;;1.03;0.93;;;5.90;99.90;;;;;;5085110;28;20251;-77
2020/12/04 04:50:46;;;;;;;1.13;1.00;;;5.90;99.90;;;;;;5087363;28;20635;-77
2020/12/04 04:53:15;;;;;;;0.70;0.70;;;5.80;99.90;;;;;;5068300;28;20770;-77
2020/12/04 04:55:44;;;;;;;1.43;0.80;;;5.80;99.90;;;;;;5091217;28;20209;-77
2020/12/04 04:58:11;;;;;;;2.23;1.17;;;5.80;99.90;;;;;;5082738;28;20251;-77
2020/12/04 05:00:38;;;;;;;0.80;0.73;;;5.60;99.90;;;;;;5083651;28;20286;-77
2020/12/04 05:03:06;;;;;;;1.50;1.00;;;5.70;99.90;;;;;;5081572;28;22005;-78
2020/12/04 05:05:46;;;;;;;1.80;1.20;;;5.70;99.90;;;;;;5091310;28;20210;-77
2020/12/04 05:08:17;;;;;;;4.50;1.00;;;5.60;99.90;;;;;;5072185;28;20205;-78
2020/12/04 05:10:45;;;;;;;1.93;0.97;;;5.70;99.90;;;;;;5081938;28;20230;-77
2020/12/04 05:13:16;;;;;;;1.00;0.80;;;5.70;99.90;;;;;;5078239;28;20249;-77
2020/12/04 05:15:43;;;;;;;2.00;1.80;;;5.70;99.90;;;;;;5084378;28;20206;-77
2020/12/04 05:18:18;;;;;;;1.33;1.23;;;5.70;99.90;;;;;;5084553;28;20261;-78
2020/12/04 05:20:51;;;;;;;1.30;0.97;;;5.70;99.90;;;;;;5089124;28;20202;-76
2020/12/04 05:23:19;;;;;;;1.47;1.00;;;5.80;99.90;;;;;;5091534;28;20293;-77
2020/12/04 05:25:47;;;;;;;1.00;0.80;;;5.70;99.90;;;;;;5070743;28;20232;-77
2020/12/04 05:28:22;;;;;;;1.40;1.00;;;5.70;99.90;;;;;;5057397;28;20214;-77
2020/12/04 05:30:55;;;;;;;1.37;0.90;;;5.80;99.90;;;;;;5095457;28;20251;-79
2020/12/04 05:33:28;;;;;;;2.43;1.00;;;5.70;99.90;;;;;;5088260;28;20206;-78
2020/12/04 05:35:54;;;;;;;1.10;0.90;;;5.70;99.90;;;;;;5086879;28;20203;-77
2020/12/04 05:38:20;;;;;;;3.77;1.10;;;5.80;99.90;;;;;;5088528;28;20222;-80
2020/12/04 05:40:49;;;;;;;1.73;1.27;;;5.70;99.90;;;;;;5069289;28;20361;-79
2020/12/04 05:43:29;;;;;;;1.87;1.00;;;5.80;99.90;;;;;;5100287;28;21986;-78
2020/12/04 05:46:19;;;;;;;1.43;1.10;;;5.80;99.90;;;;;;5091538;28;20699;-77
2020/12/04 05:49:04;;;;;;;1.07;0.90;;;5.90;99.90;;;;;;5087247;28;20332;-78
2020/12/04 05:51:32;;;;;;;1.07;0.70;;;5.80;99.90;;;;;;5091523;28;20214;-79
2020/12/04 05:54:00;;;;;;;1.37;1.10;;;5.90;99.90;;;;;;5087883;28;22068;-78
2020/12/04 05:56:26;;;;;;;4.93;0.90;;;5.90;99.90;;;;;;5072887;28;20210;-78
2020/12/04 05:58:56;;;;;;;6.43;0.97;;;5.90;99.90;;;;;;5092904;28;20264;-78
2020/12/04 06:01:23;;;;;;;0.90;0.73;;;5.90;99.90;;;;;;5086150;28;20191;-78
2020/12/04 06:03:51;;;;;;;1.47;1.10;;;6.00;99.90;;;;;;5092131;28;20203;-78
2020/12/04 06:06:28;;;;;;;1.10;0.80;;;6.00;99.90;;;;;;5057302;28;20238;-78
2020/12/04 06:08:58;;;;;;;1.13;0.70;;;6.00;99.90;;;;;;5084474;28;20209;-78
2020/12/04 06:11:30;;;;;;;2.27;0.97;;;6.10;99.90;;;;;;5083726;28;20518;-78
2020/12/04 06:13:59;;;;;;;1.43;0.80;;;6.00;99.90;;;;;;5091024;28;20318;-78
2020/12/04 06:16:25;;;;;;;1.10;1.00;;;6.00;99.90;;;;;;5087293;28;20225;-79
2020/12/04 06:18:52;;;;;;;1.23;0.80;;;6.10;99.90;;;;;;5088749;28;20207;-79
2020/12/04 06:21:44;;;;;;;1.17;0.60;;;6.10;99.90;;;;;;5080447;28;20203;-78
2020/12/04 06:24:10;;;;;;;1.40;0.80;;;6.10;99.90;;;;;;5088282;28;20596;-78
2020/12/04 06:26:49;;;;;;;0.87;0.80;;;6.20;99.90;;;;;;5091955;28;20202;-77
2020/12/04 06:29:16;;;;;;;2.50;1.00;;;6.20;99.90;;;;;;5086463;28;20252;-78
2020/12/04 06:31:43;;;;;;;2.10;0.87;;;6.30;99.90;;;;;;5088198;28;20210;-77
2020/12/04 06:34:18;;;;;;;1.20;0.90;;;6.30;99.90;;;;;;5076802;28;20198;-77
2020/12/04 06:36:45;;;;;;;1.00;0.90;;;6.40;99.90;;;;;;5091471;28;20256;-78
2020/12/04 06:39:32;;;;;;;1.00;0.80;;;6.40;99.90;;;;;;5074177;28;20295;-77
2020/12/04 06:41:59;;;;;;;2.10;0.50;;;6.50;99.90;;;;;;5065326;28;20206;-76
2020/12/04 06:44:27;;;;;;;0.70;0.60;;;6.60;99.90;;;;;;5086033;28;20202;-81
2020/12/04 06:46:58;;;;;;;1.20;0.50;;;6.80;99.90;;;;;;5085804;28;20238;-82
2020/12/04 06:49:37;;;;;;;2.00;0.60;;;6.90;99.90;;;;;;5087500;28;20202;-79
2020/12/04 06:52:05;;;;;;;1.03;0.60;;;6.90;99.90;;;;;;5088701;28;20207;-79
2020/12/04 06:54:34;;;;;;;0.57;0.30;;;6.90;99.90;;;;;;5088638;28;20209;-79
2020/12/04 06:57:00;;;;;;;0.30;0.30;;;6.90;99.90;;;;;;5095501;28;20302;-78
2020/12/04 06:59:32;;;;;;;0.80;0.33;;;6.80;99.90;;;;;;5062859;28;20236;-79
2020/12/04 07:02:13;;;;;;;0.87;0.50;;;6.90;99.90;;;;;;5081034;28;20541;-78
2020/12/04 07:04:54;;;;;;;0.80;0.20;;;7.00;99.90;;;;;;5082370;28;20264;-78
2020/12/04 07:07:24;;;;;;;0.40;0.20;;;7.00;99.90;;;;;;5081972;28;20611;-76
2020/12/04 07:09:58;;;;;;;5.20;0.50;;;7.30;99.90;;;;;;5080721;28;20365;-79
2020/12/04 07:12:27;;;;;;;0.63;0.30;;;7.40;99.90;;;;;;5089747;28;20281;-79
2020/12/04 07:14:56;;;;;;;0.40;0.10;;;7.40;99.90;;;;;;5039653;28;20213;-77
2020/12/04 07:17:32;;;;;;;1.47;0.20;;;7.50;99.90;;;;;;5090063;28;20215;-77
2020/12/04 07:19:59;;;;;;;0.80;0.30;;;7.50;99.90;;;;;;5089814;28;20552;-76
2020/12/04 07:22:27;;;;;;;1.47;0.23;;;7.50;99.90;;;;;;5067941;28;20207;-78
2020/12/04 07:24:56;;;;;;;0.20;0.20;;;7.60;99.90;;;;;;5082157;28;20712;-81
2020/12/04 07:27:28;;;;;;;0.27;0.20;;;7.60;99.90;;;;;;5089102;28;20242;-77
2020/12/04 07:29:54;;;;;;;0.20;0.10;;;7.60;99.90;;;;;;5071967;28;20195;-75
2020/12/04 07:32:22;;;;;;;0.40;0.30;;;7.70;99.90;;;;;;5087432;28;20221;-75
2020/12/04 07:34:49;;;;;;;0.30;0.10;;;7.70;99.90;;;;;;5090145;28;20203;-75
2020/12/04 07:37:16;;;;;;;0.30;0.20;;;7.70;99.90;;;;;;5087414;28;20218;-75
2020/12/04 07:39:44;;;;;;;0.30;0.27;;;7.70;99.90;;;;;;5077105;28;20276;-76
2020/12/04 07:42:12;;;;;;;0.27;0.10;;;7.70;99.90;;;;;;5089033;28;20252;-76
2020/12/04 07:44:41;;;;;;;0.30;0.20;;;7.80;99.90;;;;;;5078588;28;20257;-77
2020/12/04 07:47:16;;;;;;;0.40;0.20;;;7.80;99.90;;;;;;5079888;28;20199;-76
2020/12/04 07:49:54;;;;;;;0.20;0.10;;;7.80;99.90;;;;;;5067266;28;20599;-77
2020/12/04 07:52:22;;;;;;;0.37;0.20;;;7.70;99.90;;;;;;5104760;28;20231;-76
2020/12/04 07:55:15;;;;;;;0.50;0.27;;;7.60;99.90;;;;;;5088427;28;20588;-76
2020/12/04 07:57:42;;;;;;;0.20;0.10;;;7.50;99.90;;;;;;5081483;28;20649;-77
2020/12/04 08:00:09;;;;;;;0.40;0.20;;;7.50;99.90;;;;;;5084936;28;20198;-74
2020/12/04 08:02:35;;;;;;;0.30;0.20;;;7.50;99.90;;;;;;5088060;28;20571;-74
2020/12/04 08:05:02;;;;;;;0.27;0.10;;;7.50;99.90;;;;;;5083898;28;20251;-74
2020/12/04 08:07:30;;;;;;;0.63;0.20;;;7.40;99.90;;;;;;5087033;28;20271;-75
2020/12/04 08:09:57;;;;;;;0.63;0.30;;;7.40;99.90;;;;;;5066215;28;20219;-74
2020/12/04 08:12:28;;;;;;;0.50;0.30;;;7.40;99.90;;;;;;5078917;28;20659;-74
2020/12/04 08:14:56;;;;;;;0.43;0.33;;;7.50;99.90;;;;;;5078945;28;20260;-74
2020/12/04 08:17:28;;;;;;;0.47;0.40;;;7.40;99.90;;;;;;5078125;28;20570;-76
2020/12/04 08:19:56;;;;;;;0.20;0.10;;;7.50;99.90;;;;;;5078854;28;20206;-74
2020/12/04 08:22:32;;;;;;;0.33;0.23;;;7.50;99.90;;;;;;5084499;28;20226;-74
2020/12/04 08:25:11;;;;;;;0.33;0.10;;;7.60;99.90;;;;;;5080639;28;20576;-74
2020/12/04 08:27:44;;;;;;;0.97;0.20;;;7.60;99.90;;;;;;5078898;28;20195;-75
2020/12/04 08:30:17;;;;;;;0.73;0.23;;;7.50;99.90;;;;;;5083393;28;20611;-75
2020/12/04 08:32:49;;;;;;;0.70;0.27;;;7.50;99.90;;;;;;5079237;28;20293;-75
2020/12/04 08:35:32;;;;;;;1.90;0.20;;;7.50;99.90;;;;;;5078289;28;20218;-73
2020/12/04 08:38:26;;;;;;;1.50;0.30;;;7.50;99.90;;;;;;5086859;28;20207;-74
2020/12/04 08:40:55;;;;;;;0.50;0.30;;;7.50;99.90;;;;;;5082039;28;20222;-75
2020/12/04 08:43:23;;;;;;;0.30;0.20;;;7.30;99.90;;;;;;5052125;28;20230;-74
2020/12/04 08:45:55;;;;;;;0.30;0.20;;;7.30;99.90;;;;;;5083062;28;20233;-76
2020/12/04 08:48:24;;;;;;;1.63;0.30;;;7.20;99.90;;;;;;5080151;28;20567;-75
2020/12/04 08:50:56;;;;;;;0.30;0.10;;;7.40;99.90;;;;;;5086634;28;20213;-74
2020/12/04 08:53:23;;;;;;;0.27;0.17;;;7.40;99.90;;;;;;5085972;28;20215;-73
2020/12/04 08:55:55;;;;;;;0.40;0.20;;;7.60;99.90;;;;;;5084265;28;20206;-72
2020/12/04 08:58:22;;;;;;;3.33;0.23;;;7.60;99.90;;;;;;5090155;28;20257;-73
2020/12/04 09:00:52;;;;;;;0.27;0.20;;;7.70;99.90;;;;;;5074690;28;20305;-74
2020/12/04 09:03:19;;;;;;;0.40;0.30;;;7.80;99.90;;;;;;5084846;28;20198;-73
2020/12/04 09:05:46;;;;;;;0.53;0.40;;;7.90;99.90;;;;;;5076730;28;20197;-74
2020/12/04 09:08:13;;;;;;;0.20;0.10;;;7.90;99.90;;;;;;5070317;28;20229;-76
2020/12/04 09:10:40;;;;;;;0.40;0.23;;;8.00;99.90;;;;;;5087527;28;20242;-74
2020/12/04 09:13:08;;;;;;;0.40;0.20;;;7.90;99.90;;;;;;5086399;28;20547;-73
2020/12/04 09:15:35;;;;;;;0.63;0.40;;;7.90;99.90;;;;;;5068018;28;20199;-75
2020/12/04 09:18:02;;;;;;;2.13;0.20;;;7.90;99.90;;;;;;5086764;28;20207;-78
2020/12/04 09:20:30;;;;;;;1.80;0.20;;;8.00;99.90;;;;;;5089888;28;20565;-76
2020/12/04 09:22:58;;;;;;;0.40;0.33;;;8.10;99.90;;;;;;5089369;28;20219;-78
2020/12/04 09:25:24;;;;;;;0.73;0.20;;;8.10;99.90;;;;;;5089481;28;20203;-73
2020/12/04 09:27:51;;;;;;;0.33;0.20;;;8.10;99.90;;;;;;5080788;28;20632;-74
2020/12/04 09:30:20;;;;;;;0.30;0.30;;;8.10;99.90;;;;;;5073834;28;20288;-74
2020/12/04 09:32:48;;;;;;;0.73;0.20;;;7.90;99.90;;;;;;5082414;28;20240;-73
2020/12/04 09:35:15;;;;;;;1.40;0.43;;;7.80;99.90;;;;;;5083687;28;20199;-75
2020/12/04 09:37:43;;;;;;;0.30;0.13;;;7.80;99.90;;;;;;5083563;28;20262;-73
2020/12/04 09:40:12;;;;;;;0.53;0.30;;;7.70;99.90;;;;;;5084476;28;20227;-73
2020/12/04 09:42:39;;;;;;;0.30;0.20;;;7.80;99.90;;;;;;5088056;28;20234;-73
2020/12/04 09:45:07;;;;;;;0.70;0.50;;;7.70;99.90;;;;;;5085906;28;20199;-73
2020/12/04 09:47:35;;;;;;;1.80;0.30;;;7.70;99.90;;;;;;5089326;28;20199;-74
2020/12/04 09:50:03;;;;;;;0.20;0.10;;;7.70;99.90;;;;;;5080805;28;20650;-75
2020/12/04 09:52:30;;;;;;;0.70;0.30;;;7.70;99.90;;;;;;5088967;28;20272;-74
2020/12/04 09:54:57;;;;;;;0.40;0.30;;;7.80;99.90;;;;;;5079723;28;20834;-74
2020/12/04 09:57:24;;;;;;;0.20;0.20;;;7.70;99.90;;;;;;5086910;28;20375;-72
2020/12/04 09:59:51;;;;;;;0.70;0.30;;;7.60;99.90;;;;;;5073734;28;20335;-71
2020/12/04 10:02:17;;;;;;;0.70;0.23;;;7.60;99.90;;;;;;5068308;28;20194;-72
2020/12/04 10:04:44;;;;;;;1.47;0.23;;;7.60;99.90;;;;;;5069778;28;20674;-72
2020/12/04 10:07:10;;;;;;;1.03;1.00;;;7.60;99.90;;;;;;5065362;28;20203;-74
2020/12/04 10:09:37;;;;;;;1.00;0.60;;;7.60;99.90;;;;;;5079508;28;20203;-74
2020/12/04 10:12:05;;;;;;;0.53;0.17;;;7.60;99.90;;;;;;5083227;28;20291;-72
2020/12/04 10:14:35;;;;;;;0.40;0.30;;;7.70;99.90;;;;;;5080264;28;20229;-72
2020/12/04 10:17:01;;;;;;;1.03;0.23;;;7.60;99.90;;;;;;5084693;28;20687;-72
2020/12/04 10:19:28;;;;;;;0.67;0.30;;;7.70;99.90;;;;;;5077885;28;20545;-72
2020/12/04 10:21:55;;;;;;;0.30;0.27;;;7.70;99.90;;;;;;5083027;28;20195;-74
2020/12/04 10:24:22;;;;;;;0.50;0.30;;;7.70;99.90;;;;;;5062233;28;20308;-72
2020/12/04 10:26:50;;;;;;;0.20;0.10;;;7.80;99.90;;;;;;5064342;28;20234;-73
2020/12/04 10:29:18;;;;;;;1.73;0.20;;;7.90;99.90;;;;;;5083878;28;20301;-73
2020/12/04 10:31:45;;;;;;;0.30;0.30;;;8.00;99.90;;;;;;5079304;28;20559;-74
2020/12/04 10:34:12;;;;;;;0.40;0.27;;;8.10;99.90;;;;;;5080338;28;20199;-72
2020/12/04 10:36:40;;;;;;;1.27;0.30;;;8.30;99.90;;;;;;5063772;28;20391;-72
2020/12/04 10:39:08;;;;;;;0.20;0.10;;;8.30;99.90;;;;;;5083801;28;20199;-72
2020/12/04 10:41:36;;;;;;;0.67;0.17;;;8.20;99.90;;;;;;5070679;28;20202;-72
2020/12/04 10:44:04;;;;;;;0.30;0.20;;;8.20;99.90;;;;;;5080441;28;20230;-72
2020/12/04 10:46:32;;;;;;;0.70;0.30;;;8.10;99.90;;;;;;5079200;28;20206;-74
2020/12/04 10:48:58;;;;;;;0.70;0.20;;;8.10;99.90;;;;;;5046220;28;20639;-72
2020/12/04 10:51:25;;;;;;;0.20;0.10;;;8.10;99.90;;;;;;5062455;28;20202;-73
2020/12/04 10:53:52;;;;;;;0.40;0.17;;;7.90;99.90;;;;;;5071058;28;20259;-72
2020/12/04 10:56:22;;;;;;;0.20;0.20;;;7.80;99.90;;;;;;5079247;28;20221;-72
2020/12/04 10:58:52;;;;;;;1.57;0.20;;;7.80;99.90;;;;;;5079161;28;20309;-72
2020/12/04 11:01:30;;;;;;;0.50;0.33;;;7.70;99.90;;;;;;5085164;28;20519;-72
2020/12/04 11:06:25;;;;;;;0.40;0.40;;;7.60;99.90;;;;;;5076497;28;20207;-73
2020/12/04 11:08:52;;;;;;;3.13;0.40;;;7.70;99.90;;;;;;5066838;28;20226;-73
2020/12/04 11:11:21;;;;;;;0.30;0.30;;;7.70;99.90;;;;;;5081751;28;20194;-72
2020/12/04 11:13:48;;;;;;;0.40;0.30;;;7.80;99.90;;;;;;5075920;28;20254;-74
2020/12/04 11:16:14;;;;;;;0.43;0.20;;;7.60;99.90;;;;;;5078982;28;20204;-74
2020/12/04 11:18:41;;;;;;;0.27;0.20;;;7.60;99.90;;;;;;5081648;28;20239;-72
2020/12/04 11:21:08;;;;;;;0.50;0.37;;;7.60;99.90;;;;;;5079959;28;20314;-72
2020/12/04 11:23:35;;;;;;;0.67;0.50;;;7.60;99.90;;;;;;5062654;28;20658;-73
2020/12/04 11:26:02;;;;;;;0.40;0.30;;;7.70;99.90;;;;;;5078370;28;20225;-74
2020/12/04 11:28:32;;;;;;;0.60;0.40;;;7.60;99.90;;;;;;5062649;28;20202;-74
2020/12/04 11:30:59;;;;;;;0.27;0.27;;;7.70;99.90;;;;;;5081136;28;20233;-74
2020/12/04 11:33:25;;;;;;;1.27;0.40;;;8.30;99.90;;;;;;5070204;28;20279;-73
2020/12/04 11:35:51;;;;;;;0.73;0.37;;;8.60;99.90;;;;;;5059652;28;20246;-73
2020/12/04 11:38:18;;;;;;;0.40;0.20;;;8.60;99.90;;;;;;5079185;28;20363;-74
2020/12/04 11:40:44;;;;;;;0.47;0.30;;;8.50;99.90;;;;;;5048432;28;20657;-73
2020/12/04 11:43:10;;;;;;;0.73;0.73;;;8.80;99.90;;;;;;5079967;28;20242;-74
2020/12/04 11:45:38;;;;;;;0.60;0.20;;;8.80;99.90;;;;;;5080404;28;20196;-73
2020/12/04 11:48:04;;;;;;;0.50;0.30;;;8.70;99.90;;;;;;5077019;28;21117;-73
2020/12/04 11:50:31;;;;;;;0.40;0.30;;;8.60;99.90;;;;;;5080584;28;20222;-74
2020/12/04 11:52:58;;;;;;;0.60;0.20;;;8.20;99.90;;;;;;5068411;28;20243;-75
2020/12/04 11:55:24;;;;;;;0.97;0.10;;;8.10;99.90;;;;;;5068972;28;20219;-73
2020/12/04 11:57:50;;;;;;;0.30;0.20;;;7.90;99.90;;;;;;5080113;28;20291;-73
2020/12/04 12:00:19;;;;;;;4.57;0.43;;;7.90;99.90;;;;;;5083286;28;20585;-74
2020/12/04 12:02:46;;;;;;;0.57;0.20;;;7.90;99.90;;;;;;5081175;28;21475;-74
2020/12/04 12:05:12;;;;;;;0.40;0.30;;;7.90;99.90;;;;;;5084213;28;20229;-73
2020/12/04 12:07:39;;;;;;;0.37;0.30;;;7.90;99.90;;;;;;5067158;28;20230;-74
2020/12/04 12:10:06;;;;;;;0.50;0.40;;;7.90;99.90;;;;;;5085875;28;20222;-74
2020/12/04 12:12:32;;;;;;;0.53;0.30;;;7.90;99.90;;;;;;5083082;28;20257;-73
2020/12/04 12:14:59;;;;;;;0.30;0.20;;;8.00;99.90;;;;;;5079862;28;20211;-73
2020/12/04 12:17:25;;;;;;;0.50;0.50;;;7.90;99.90;;;;;;5067725;28;20650;-74
2020/12/04 12:19:51;;;;;;;0.40;0.20;;;7.80;99.90;;;;;;5083147;28;20244;-75
2020/12/04 12:22:18;;;;;;;0.73;0.27;;;7.90;99.90;;;;;;5068747;28;20677;-75
2020/12/04 12:24:45;;;;;;;0.60;0.20;;;7.80;99.90;;;;;;5067499;28;20207;-74
2020/12/04 12:27:11;;;;;;;0.23;0.20;;;7.70;99.90;;;;;;5075096;28;20226;-74
2020/12/04 12:29:38;;;;;;;0.30;0.30;;;7.70;99.90;;;;;;5067640;28;20203;-74
2020/12/04 12:32:05;;;;;;;0.77;0.30;;;7.70;99.90;;;;;;5081120;28;20284;-73
2020/12/04 12:37:17;;;;;;;0.30;0.30;;;7.70;99.90;;;;;;5082066;28;20237;-73
2020/12/04 12:39:43;;;;;;;2.27;0.30;;;7.70;99.90;;;;;;5080010;28;20202;-73
2020/12/04 12:42:14;;;;;;;0.40;0.20;;;7.60;99.90;;;;;;5063465;28;20190;-74
2020/12/04 12:44:41;;;;;;;0.30;0.20;;;7.50;99.90;;;;;;5079556;28;20731;-75
2020/12/04 12:47:09;;;;;;;0.73;0.60;;;7.60;99.90;;;;;;5077527;28;20203;-75
2020/12/04 12:49:35;;;;;;;0.50;0.40;;;7.60;99.90;;;;;;5080314;28;20257;-72
2020/12/04 12:52:02;;;;;;;0.60;0.30;;;7.50;99.90;;;;;;5082923;28;20242;-73
2020/12/04 12:54:29;;;;;;;1.63;0.40;;;7.50;99.90;;;;;;5066339;28;20241;-74
2020/12/04 12:56:57;;;;;;;1.13;0.97;;;7.50;99.90;;;;;;5099818;28;20253;-73
2020/12/04 12:59:24;;;;;;;0.60;0.40;;;7.50;99.90;;;;;;5079480;28;20246;-73
2020/12/04 13:01:54;;;;;;;2.03;0.40;;;7.50;99.90;;;;;;5081925;28;20267;-72
2020/12/04 13:04:21;;;;;;;2.13;0.50;;;7.60;99.90;;;;;;5080955;28;20230;-73
2020/12/04 13:06:48;;;;;;;1.03;0.60;;;7.70;99.90;;;;;;5081663;28;20549;-73
2020/12/04 13:09:15;;;;;;;0.83;0.40;;;7.60;99.90;;;;;;5079699;28;20675;-73